sensor_id;sensor_type;location;lat;lon;timestamp;pressure;altitude;pressure_sealevel;temperature;humidity
7052;BME280;3567;52.444;13.556;2023-03-16T00:00:23;101717.75;;;-1.40;100.00
7052;BME280;3567;52.444;13.556;2023-03-16T00:02:49;101717.59;;;-1.27;100.00
7052;BME280;3567;52.444;13.556;2023-03-16T00:05:14;101730.09;;;-1.20;100.00
7052;BME280;3567;52.444;13.556;2023-03-16T00:07:40;101722.66;;;-1.15;100.00
7052;BME280;3567;52.444;13.556;2023-03-16T00:10:07;101729.06;;;-1.08;100.00
7052;BME280;3567;52.444;13.556;2023-03-16T00:12:32;101731.44;;;-1.04;100.00
7052;BME280;3567;52.444;13.556;2023-03-16T00:14:59;101734.75;;;-1.02;100.00
7052;BME280;3567;52.444;13.556;2023-03-16T00:17:25;101725.78;;;-1.00;100.00
7052;BME280;3567;52.444;13.556;2023-03-16T00:19:53;101730.53;;;-0.94;100.00
7052;BME280;3567;52.444;13.556;2023-03-16T00:22:24;101733.63;;;-0.89;100.00
7052;BME280;3567;52.444;13.556;2023-03-16T00:24:50;101728.94;;;-0.85;100.00
7052;BME280;3567;52.444;13.556;2023-03-16T00:27:16;101737.66;;;-0.85;100.00
7052;BME280;3567;52.444;13.556;2023-03-16T00:29:43;101729.78;;;-0.85;100.00
7052;BME280;3567;52.444;13.556;2023-03-16T00:32:17;101734.06;;;-0.84;100.00
7052;BME280;3567;52.444;13.556;2023-03-16T00:34:44;101731.44;;;-0.84;100.00
7052;BME280;3567;52.444;13.556;2023-03-16T00:37:11;101741.13;;;-0.84;100.00
7052;BME280;3567;52.444;13.556;2023-03-16T00:39:40;101739.00;;;-0.90;100.00
7052;BME280;3567;52.444;13.556;2023-03-16T00:42:06;101738.81;;;-0.98;100.00
7052;BME280;3567;52.444;13.556;2023-03-16T00:44:32;101744.59;;;-1.04;100.00
7052;BME280;3567;52.444;13.556;2023-03-16T00:46:57;101743.44;;;-1.12;100.00
7052;BME280;3567;52.444;13.556;2023-03-16T00:49:22;101746.56;;;-1.18;100.00
7052;BME280;3567;52.444;13.556;2023-03-16T00:51:48;101746.97;;;-1.22;100.00
7052;BME280;3567;52.444;13.556;2023-03-16T00:54:13;101753.16;;;-1.23;100.00
7052;BME280;3567;52.444;13.556;2023-03-16T00:56:38;101747.78;;;-1.22;100.00
7052;BME280;3567;52.444;13.556;2023-03-16T00:59:04;101750.16;;;-1.19;100.00
7052;BME280;3567;52.444;13.556;2023-03-16T01:01:29;101748.09;;;-1.15;100.00
7052;BME280;3567;52.444;13.556;2023-03-16T01:03:57;101749.78;;;-1.14;100.00
7052;BME280;3567;52.444;13.556;2023-03-16T01:06:24;101752.16;;;-1.11;100.00
7052;BME280;3567;52.444;13.556;2023-03-16T01:08:50;101762.28;;;-1.07;100.00
7052;BME280;3567;52.444;13.556;2023-03-16T01:11:19;101762.28;;;-1.07;100.00
7052;BME280;3567;52.444;13.556;2023-03-16T01:13:47;101756.06;;;-1.06;100.00
7052;BME280;3567;52.444;13.556;2023-03-16T01:16:13;101752.34;;;-1.03;100.00
7052;BME280;3567;52.444;13.556;2023-03-16T01:18:39;101755.69;;;-1.01;100.00
7052;BME280;3567;52.444;13.556;2023-03-16T01:21:07;101754.59;;;-0.98;100.00
7052;BME280;3567;52.444;13.556;2023-03-16T01:23:34;101757.91;;;-0.96;100.00
7052;BME280;3567;52.444;13.556;2023-03-16T01:25:59;101762.22;;;-0.95;100.00
7052;BME280;3567;52.444;13.556;2023-03-16T01:28:28;101760.44;;;-0.95;100.00
7052;BME280;3567;52.444;13.556;2023-03-16T01:30:57;101762.94;;;-0.93;100.00
7052;BME280;3567;52.444;13.556;2023-03-16T01:33:25;101754.06;;;-0.92;100.00
7052;BME280;3567;52.444;13.556;2023-03-16T01:35:52;101755.03;;;-0.93;100.00
7052;BME280;3567;52.444;13.556;2023-03-16T01:38:18;101756.00;;;-0.94;100.00
7052;BME280;3567;52.444;13.556;2023-03-16T01:40:43;101757.91;;;-0.96;100.00
7052;BME280;3567;52.444;13.556;2023-03-16T01:43:09;101749.34;;;-0.98;100.00
7052;BME280;3567;52.444;13.556;2023-03-16T01:48:32;101759.41;;;-1.03;100.00
7052;BME280;3567;52.444;13.556;2023-03-16T01:51:03;101757.88;;;-1.06;100.00
7052;BME280;3567;52.444;13.556;2023-03-16T01:53:29;101763.22;;;-1.08;100.00
7052;BME280;3567;52.444;13.556;2023-03-16T01:55:58;101760.59;;;-1.08;100.00
7052;BME280;3567;52.444;13.556;2023-03-16T01:58:27;101762.53;;;-1.10;100.00
7052;BME280;3567;52.444;13.556;2023-03-16T02:00:53;101758.34;;;-1.12;100.00
7052;BME280;3567;52.444;13.556;2023-03-16T02:03:19;101751.34;;;-1.12;100.00
7052;BME280;3567;52.444;13.556;2023-03-16T02:06:10;101757.53;;;-1.13;100.00
7052;BME280;3567;52.444;13.556;2023-03-16T02:08:38;101750.59;;;-1.14;100.00
7052;BME280;3567;52.444;13.556;2023-03-16T02:11:06;101746.44;;;-1.16;100.00
7052;BME280;3567;52.444;13.556;2023-03-16T02:13:33;101749.91;;;-1.16;100.00
7052;BME280;3567;52.444;13.556;2023-03-16T02:16:02;101745.84;;;-1.20;100.00
7052;BME280;3567;52.444;13.556;2023-03-16T02:18:30;101744.19;;;-1.21;100.00
7052;BME280;3567;52.444;13.556;2023-03-16T02:23:41;101747.06;;;-1.24;100.00
7052;BME280;3567;52.444;13.556;2023-03-16T02:26:31;101737.53;;;-1.25;100.00
7052;BME280;3567;52.444;13.556;2023-03-16T02:31:45;101737.75;;;-1.28;100.00
7052;BME280;3567;52.444;13.556;2023-03-16T02:34:12;101739.69;;;-1.30;100.00
7052;BME280;3567;52.444;13.556;2023-03-16T02:36:39;101742.31;;;-1.30;100.00
7052;BME280;3567;52.444;13.556;2023-03-16T02:39:06;101746.59;;;-1.29;100.00
7052;BME280;3567;52.444;13.556;2023-03-16T02:41:32;101744.13;;;-1.30;100.00
7052;BME280;3567;52.444;13.556;2023-03-16T02:44:04;101748.41;;;-1.29;100.00
7052;BME280;3567;52.444;13.556;2023-03-16T02:46:34;101748.53;;;-1.31;100.00
7052;BME280;3567;52.444;13.556;2023-03-16T02:49:07;101750.47;;;-1.33;100.00
7052;BME280;3567;52.444;13.556;2023-03-16T02:51:35;101751.69;;;-1.37;100.00
7052;BME280;3567;52.444;13.556;2023-03-16T02:54:01;101754.81;;;-1.43;100.00
7052;BME280;3567;52.444;13.556;2023-03-16T02:56:26;101748.38;;;-1.50;100.00
7052;BME280;3567;52.444;13.556;2023-03-16T02:58:52;101753.16;;;-1.55;100.00
7052;BME280;3567;52.444;13.556;2023-03-16T03:01:18;101751.88;;;-1.61;100.00
7052;BME280;3567;52.444;13.556;2023-03-16T03:03:43;101754.03;;;-1.66;100.00
7052;BME280;3567;52.444;13.556;2023-03-16T03:06:09;101760.63;;;-1.72;100.00
7052;BME280;3567;52.444;13.556;2023-03-16T03:08:35;101755.63;;;-1.75;100.00
7052;BME280;3567;52.444;13.556;2023-03-16T03:11:01;101753.84;;;-1.74;100.00
7052;BME280;3567;52.444;13.556;2023-03-16T03:13:26;101763.59;;;-1.76;100.00
7052;BME280;3567;52.444;13.556;2023-03-16T03:15:52;101776.38;;;-1.72;100.00
7052;BME280;3567;52.444;13.556;2023-03-16T03:18:17;101779.13;;;-1.73;100.00
7052;BME280;3567;52.444;13.556;2023-03-16T03:20:43;101779.00;;;-1.72;100.00
7052;BME280;3567;52.444;13.556;2023-03-16T03:23:08;101783.56;;;-1.74;100.00
7052;BME280;3567;52.444;13.556;2023-03-16T03:25:34;101778.31;;;-1.74;100.00
7052;BME280;3567;52.444;13.556;2023-03-16T03:28:00;101760.97;;;-1.76;100.00
7052;BME280;3567;52.444;13.556;2023-03-16T03:30:27;101768.03;;;-1.77;100.00
7052;BME280;3567;52.444;13.556;2023-03-16T03:32:53;101770.78;;;-1.78;100.00
7052;BME280;3567;52.444;13.556;2023-03-16T03:35:19;101779.53;;;-1.89;100.00
7052;BME280;3567;52.444;13.556;2023-03-16T03:37:45;101782.50;;;-1.94;100.00
7052;BME280;3567;52.444;13.556;2023-03-16T03:40:13;101781.81;;;-1.96;100.00
7052;BME280;3567;52.444;13.556;2023-03-16T03:42:39;101785.50;;;-1.98;100.00
7052;BME280;3567;52.444;13.556;2023-03-16T03:45:05;101785.50;;;-1.98;100.00
7052;BME280;3567;52.444;13.556;2023-03-16T03:47:32;101777.75;;;-2.00;100.00
7052;BME280;3567;52.444;13.556;2023-03-16T03:49:57;101784.44;;;-1.96;100.00
7052;BME280;3567;52.444;13.556;2023-03-16T03:52:23;101791.00;;;-1.90;100.00
7052;BME280;3567;52.444;13.556;2023-03-16T03:54:48;101776.91;;;-1.89;100.00
7052;BME280;3567;52.444;13.556;2023-03-16T03:57:14;101790.25;;;-1.92;100.00
7052;BME280;3567;52.444;13.556;2023-03-16T03:59:39;101787.16;;;-1.97;100.00
7052;BME280;3567;52.444;13.556;2023-03-16T04:02:11;101784.78;;;-2.00;100.00
7052;BME280;3567;52.444;13.556;2023-03-16T04:04:37;101781.56;;;-2.04;100.00
7052;BME280;3567;52.444;13.556;2023-03-16T04:07:03;101785.88;;;-2.14;100.00
7052;BME280;3567;52.444;13.556;2023-03-16T04:09:29;101784.56;;;-2.20;100.00
7052;BME280;3567;52.444;13.556;2023-03-16T04:12:01;101784.56;;;-2.20;100.00
7052;BME280;3567;52.444;13.556;2023-03-16T04:14:28;101774.88;;;-2.19;100.00
7052;BME280;3567;52.444;13.556;2023-03-16T04:16:54;101780.97;;;-2.19;100.00
7052;BME280;3567;52.444;13.556;2023-03-16T04:19:21;101788.63;;;-2.16;100.00
7052;BME280;3567;52.444;13.556;2023-03-16T04:21:48;101790.06;;;-2.12;100.00
7052;BME280;3567;52.444;13.556;2023-03-16T04:24:13;101787.44;;;-2.12;100.00
7052;BME280;3567;52.444;13.556;2023-03-16T04:26:43;101783.72;;;-2.09;100.00
7052;BME280;3567;52.444;13.556;2023-03-16T04:29:10;101789.09;;;-2.11;100.00
7052;BME280;3567;52.444;13.556;2023-03-16T04:31:36;101791.94;;;-2.14;100.00
7052;BME280;3567;52.444;13.556;2023-03-16T04:34:02;101787.91;;;-2.18;100.00
7052;BME280;3567;52.444;13.556;2023-03-16T04:36:27;101789.34;;;-2.25;100.00
7052;BME280;3567;52.444;13.556;2023-03-16T04:38:53;101794.34;;;-2.33;100.00
7052;BME280;3567;52.444;13.556;2023-03-16T04:41:19;101788.84;;;-2.41;100.00
7052;BME280;3567;52.444;13.556;2023-03-16T04:43:44;101791.81;;;-2.46;100.00
7052;BME280;3567;52.444;13.556;2023-03-16T04:46:10;101797.19;;;-2.47;100.00
7052;BME280;3567;52.444;13.556;2023-03-16T04:48:36;101795.03;;;-2.53;100.00
7052;BME280;3567;52.444;13.556;2023-03-16T04:51:02;101798.38;;;-2.51;100.00
7052;BME280;3567;52.444;13.556;2023-03-16T04:53:29;101802.69;;;-2.50;100.00
7052;BME280;3567;52.444;13.556;2023-03-16T04:55:56;101798.38;;;-2.51;100.00
7052;BME280;3567;52.444;13.556;2023-03-16T04:58:21;101801.75;;;-2.49;100.00
7052;BME280;3567;52.444;13.556;2023-03-16T05:00:47;101800.31;;;-2.42;100.00
7052;BME280;3567;52.444;13.556;2023-03-16T05:03:13;101797.94;;;-2.34;100.00
7052;BME280;3567;52.444;13.556;2023-03-16T05:05:39;101794.72;;;-2.26;100.00
7052;BME280;3567;52.444;13.556;2023-03-16T05:08:05;101798.66;;;-2.21;100.00
7052;BME280;3567;52.444;13.556;2023-03-16T05:10:33;101797.19;;;-2.14;100.00
7052;BME280;3567;52.444;13.556;2023-03-16T05:12:59;101803.88;;;-2.09;100.00
7052;BME280;3567;52.444;13.556;2023-03-16T05:15:24;101797.81;;;-2.10;100.00
7052;BME280;3567;52.444;13.556;2023-03-16T05:17:50;101802.09;;;-2.09;100.00
7052;BME280;3567;52.444;13.556;2023-03-16T05:20:16;101801.88;;;-2.06;100.00
7052;BME280;3567;52.444;13.556;2023-03-16T05:22:44;101809.13;;;-2.09;100.00
7052;BME280;3567;52.444;13.556;2023-03-16T05:25:10;101804.38;;;-2.16;100.00
7052;BME280;3567;52.444;13.556;2023-03-16T05:27:42;101809.28;;;-2.22;100.00
7052;BME280;3567;52.444;13.556;2023-03-16T05:30:09;101804.59;;;-2.30;100.00
7052;BME280;3567;52.444;13.556;2023-03-16T05:32:35;101813.78;;;-2.35;100.00
7052;BME280;3567;52.444;13.556;2023-03-16T05:35:01;101813.19;;;-2.39;100.00
7052;BME280;3567;52.444;13.556;2023-03-16T05:37:27;101815.91;;;-2.41;100.00
7052;BME280;3567;52.444;13.556;2023-03-16T05:39:53;101823.91;;;-2.42;100.00
7052;BME280;3567;52.444;13.556;2023-03-16T05:42:18;101820.47;;;-2.43;100.00
7052;BME280;3567;52.444;13.556;2023-03-16T05:44:44;101815.09;;;-2.41;100.00
7052;BME280;3567;52.444;13.556;2023-03-16T05:47:10;101826.44;;;-2.29;100.00
7052;BME280;3567;52.444;13.556;2023-03-16T05:49:36;101824.06;;;-2.21;100.00
7052;BME280;3567;52.444;13.556;2023-03-16T05:52:01;101828.69;;;-2.14;100.00
7052;BME280;3567;52.444;13.556;2023-03-16T05:54:28;101830.75;;;-2.06;100.00
7052;BME280;3567;52.444;13.556;2023-03-16T05:56:54;101822.25;;;-1.98;100.00
7052;BME280;3567;52.444;13.556;2023-03-16T05:59:19;101833.72;;;-1.88;100.00
7052;BME280;3567;52.444;13.556;2023-03-16T06:01:45;101839.06;;;-1.78;100.00
7052;BME280;3567;52.444;13.556;2023-03-16T06:04:11;101834.91;;;-1.70;100.00
7052;BME280;3567;52.444;13.556;2023-03-16T06:06:36;101836.78;;;-1.61;100.00
7052;BME280;3567;52.444;13.556;2023-03-16T06:09:03;101837.97;;;-1.53;100.00
7052;BME280;3567;52.444;13.556;2023-03-16T06:11:31;101838.91;;;-1.43;100.00
7052;BME280;3567;52.444;13.556;2023-03-16T06:13:58;101840.91;;;-1.36;100.00
7052;BME280;3567;52.444;13.556;2023-03-16T06:16:24;101842.91;;;-1.28;100.00
7052;BME280;3567;52.444;13.556;2023-03-16T06:18:49;101844.94;;;-1.20;100.00
7052;BME280;3567;52.444;13.556;2023-03-16T06:21:17;101840.00;;;-1.14;100.00
7052;BME280;3567;52.444;13.556;2023-03-16T06:23:43;101845.34;;;-1.04;100.00
7052;BME280;3567;52.444;13.556;2023-03-16T06:26:12;101846.50;;;-0.97;100.00
7052;BME280;3567;52.444;13.556;2023-03-16T06:28:41;101847.78;;;-0.91;100.00
7052;BME280;3567;52.444;13.556;2023-03-16T06:31:09;101848.84;;;-0.83;100.00
7052;BME280;3567;52.444;13.556;2023-03-16T06:33:38;101855.16;;;-0.74;100.00
7052;BME280;3567;52.444;13.556;2023-03-16T06:36:06;101860.34;;;-0.63;100.00
7052;BME280;3567;52.444;13.556;2023-03-16T06:41:02;101862.38;;;-0.45;100.00
7052;BME280;3567;52.444;13.556;2023-03-16T06:43:27;101872.16;;;-0.36;100.00
7052;BME280;3567;52.444;13.556;2023-03-16T06:45:53;101876.63;;;-0.27;100.00
7052;BME280;3567;52.444;13.556;2023-03-16T06:48:18;101881.13;;;-0.18;100.00
7052;BME280;3567;52.444;13.556;2023-03-16T06:50:44;101878.84;;;-0.02;100.00
7052;BME280;3567;52.444;13.556;2023-03-16T06:53:10;101875.41;;;0.08;100.00
7052;BME280;3567;52.444;13.556;2023-03-16T06:55:36;101883.50;;;0.16;100.00
7052;BME280;3567;52.444;13.556;2023-03-16T06:58:01;101889.09;;;0.22;100.00
7052;BME280;3567;52.444;13.556;2023-03-16T07:00:27;101891.03;;;0.30;100.00
7052;BME280;3567;52.444;13.556;2023-03-16T07:02:52;101885.22;;;0.36;100.00
7052;BME280;3567;52.444;13.556;2023-03-16T07:05:17;101887.22;;;0.44;100.00
7052;BME280;3567;52.444;13.556;2023-03-16T07:07:43;101885.84;;;0.49;100.00
7052;BME280;3567;52.444;13.556;2023-03-16T07:10:14;101898.47;;;0.56;100.00
7052;BME280;3567;52.444;13.556;2023-03-16T07:12:41;101898.38;;;0.67;100.00
7052;BME280;3567;52.444;13.556;2023-03-16T07:15:07;101901.88;;;0.77;100.00
7052;BME280;3567;52.444;13.556;2023-03-16T07:17:32;101907.44;;;0.93;100.00
7052;BME280;3567;52.444;13.556;2023-03-16T07:19:57;101901.78;;;1.08;100.00
7052;BME280;3567;52.444;13.556;2023-03-16T07:22:23;101912.88;;;1.21;100.00
7052;BME280;3567;52.444;13.556;2023-03-16T07:24:48;101910.09;;;1.32;100.00
7052;BME280;3567;52.444;13.556;2023-03-16T07:27:21;101913.31;;;1.45;100.00
7052;BME280;3567;52.444;13.556;2023-03-16T07:29:48;101910.66;;;1.55;98.72
7052;BME280;3567;52.444;13.556;2023-03-16T07:32:13;101917.59;;;1.66;98.06
7052;BME280;3567;52.444;13.556;2023-03-16T07:34:39;101921.75;;;1.78;97.91
7052;BME280;3567;52.444;13.556;2023-03-16T07:37:06;101921.56;;;1.89;97.08
7052;BME280;3567;52.444;13.556;2023-03-16T07:39:32;101923.91;;;2.02;97.28
7052;BME280;3567;52.444;13.556;2023-03-16T07:41:58;101930.81;;;2.13;96.11
7052;BME280;3567;52.444;13.556;2023-03-16T07:44:38;101937.88;;;2.22;95.92
7052;BME280;3567;52.444;13.556;2023-03-16T07:47:04;101938.69;;;2.32;96.06
7052;BME280;3567;52.444;13.556;2023-03-16T07:49:31;101943.53;;;2.46;95.04
7052;BME280;3567;52.444;13.556;2023-03-16T07:51:56;101930.53;;;2.53;94.31
7052;BME280;3567;52.444;13.556;2023-03-16T07:54:21;101938.72;;;2.59;93.48
7052;BME280;3567;52.444;13.556;2023-03-16T07:56:48;101931.13;;;2.74;93.34
7052;BME280;3567;52.444;13.556;2023-03-16T07:59:14;101929.31;;;2.93;92.68
7052;BME280;3567;52.444;13.556;2023-03-16T08:01:39;101933.38;;;3.14;90.90
7052;BME280;3567;52.444;13.556;2023-03-16T08:04:04;101936.56;;;3.36;92.05
7052;BME280;3567;52.444;13.556;2023-03-16T08:06:30;101938.03;;;3.56;90.05
7052;BME280;3567;52.444;13.556;2023-03-16T08:08:55;101936.50;;;3.72;88.85
7052;BME280;3567;52.444;13.556;2023-03-16T08:11:20;101938.34;;;3.97;88.11
7052;BME280;3567;52.444;13.556;2023-03-16T08:13:50;101931.22;;;4.24;86.28
7052;BME280;3567;52.444;13.556;2023-03-16T08:16:22;101941.63;;;4.51;86.50
7052;BME280;3567;52.444;13.556;2023-03-16T08:18:47;101945.88;;;4.78;84.12
7052;BME280;3567;52.444;13.556;2023-03-16T08:21:15;101939.34;;;5.07;83.96
7052;BME280;3567;52.444;13.556;2023-03-16T08:23:41;101930.75;;;5.29;81.96
7052;BME280;3567;52.444;13.556;2023-03-16T08:26:08;101925.59;;;5.52;78.60
7052;BME280;3567;52.444;13.556;2023-03-16T08:28:34;101926.94;;;5.81;78.86
7052;BME280;3567;52.444;13.556;2023-03-16T08:31:00;101924.88;;;6.15;77.60
7052;BME280;3567;52.444;13.556;2023-03-16T08:33:26;101933.72;;;6.55;75.80
7052;BME280;3567;52.444;13.556;2023-03-16T08:35:52;101933.41;;;6.89;76.48
7052;BME280;3567;52.444;13.556;2023-03-16T08:38:18;101935.59;;;7.17;74.89
7052;BME280;3567;52.444;13.556;2023-03-16T08:40:43;101938.84;;;7.50;72.41
7052;BME280;3567;52.444;13.556;2023-03-16T08:43:16;101933.38;;;7.66;71.33
7052;BME280;3567;52.444;13.556;2023-03-16T08:45:44;101932.03;;;7.85;70.72
7052;BME280;3567;52.444;13.556;2023-03-16T08:48:10;101930.78;;;7.96;68.31
7052;BME280;3567;52.444;13.556;2023-03-16T08:50:39;101930.78;;;7.96;64.08
7052;BME280;3567;52.444;13.556;2023-03-16T08:53:05;101938.69;;;8.04;66.43
7052;BME280;3567;52.444;13.556;2023-03-16T08:55:30;101937.81;;;8.26;65.26
7052;BME280;3567;52.444;13.556;2023-03-16T08:57:55;101936.97;;;8.55;64.76
7052;BME280;3567;52.444;13.556;2023-03-16T09:00:21;101942.59;;;8.75;63.66
7052;BME280;3567;52.444;13.556;2023-03-16T09:02:47;101927.63;;;8.96;59.63
7052;BME280;3567;52.444;13.556;2023-03-16T09:05:13;101926.97;;;8.93;60.37
7052;BME280;3567;52.444;13.556;2023-03-16T09:07:40;101932.53;;;9.35;61.48
7052;BME280;3567;52.444;13.556;2023-03-16T09:10:06;101929.13;;;9.69;59.65
7052;BME280;3567;52.444;13.556;2023-03-16T09:12:35;101921.72;;;9.92;57.49
7052;BME280;3567;52.444;13.556;2023-03-16T09:15:01;101921.78;;;10.06;56.08
7052;BME280;3567;52.444;13.556;2023-03-16T09:17:26;101915.56;;;10.27;55.58
7052;BME280;3567;52.444;13.556;2023-03-16T09:19:53;101922.63;;;10.34;53.92
7052;BME280;3567;52.444;13.556;2023-03-16T09:22:19;101928.38;;;10.38;53.27
7052;BME280;3567;52.444;13.556;2023-03-16T09:24:44;101920.78;;;10.41;52.99
7052;BME280;3567;52.444;13.556;2023-03-16T09:27:09;101922.63;;;10.34;51.90
7052;BME280;3567;52.444;13.556;2023-03-16T09:29:36;101920.13;;;10.33;52.26
7052;BME280;3567;52.444;13.556;2023-03-16T09:32:01;101926.88;;;10.63;52.25
7052;BME280;3567;52.444;13.556;2023-03-16T09:34:28;101924.19;;;10.63;51.05
7052;BME280;3567;52.444;13.556;2023-03-16T09:36:53;101921.75;;;10.68;51.39
7052;BME280;3567;52.444;13.556;2023-03-16T09:39:19;101928.28;;;11.14;51.81
7052;BME280;3567;52.444;13.556;2023-03-16T09:41:54;101912.56;;;10.97;48.10
7052;BME280;3567;52.444;13.556;2023-03-16T09:45:09;101910.91;;;10.96;47.07
7052;BME280;3567;52.444;13.556;2023-03-16T09:47:33;101910.41;;;10.73;46.67
7052;BME280;3567;52.444;13.556;2023-03-16T09:50:03;101910.41;;;10.73;47.15
7052;BME280;3567;52.444;13.556;2023-03-16T09:55:32;101912.63;;;11.31;47.61
7052;BME280;3567;52.444;13.556;2023-03-16T09:58:00;101916.38;;;11.63;47.55
7052;BME280;3567;52.444;13.556;2023-03-16T10:00:40;101918.44;;;11.67;47.04
7052;BME280;3567;52.444;13.556;2023-03-16T10:03:16;101917.59;;;12.06;46.94
7052;BME280;3567;52.444;13.556;2023-03-16T10:05:46;101901.84;;;12.23;45.51
7052;BME280;3567;52.444;13.556;2023-03-16T10:08:23;101905.22;;;11.92;43.74
7052;BME280;3567;52.444;13.556;2023-03-16T10:13:49;101900.28;;;11.56;44.39
7052;BME280;3567;52.444;13.556;2023-03-16T10:16:21;101904.78;;;11.75;44.31
7052;BME280;3567;52.444;13.556;2023-03-16T10:19:01;101898.19;;;11.91;43.18
7052;BME280;3567;52.444;13.556;2023-03-16T10:21:27;101887.47;;;11.85;44.57
7052;BME280;3567;52.444;13.556;2023-03-16T10:23:56;101887.66;;;11.90;43.46
7052;BME280;3567;52.444;13.556;2023-03-16T10:26:32;101874.66;;;11.93;43.49
7052;BME280;3567;52.444;13.556;2023-03-16T10:29:01;101886.13;;;12.27;43.64
7052;BME280;3567;52.444;13.556;2023-03-16T10:31:26;101877.13;;;12.59;42.17
7052;BME280;3567;52.444;13.556;2023-03-16T10:33:57;101888.78;;;12.85;42.52
7052;BME280;3567;52.444;13.556;2023-03-16T10:36:36;101858.66;;;12.70;39.34
7052;BME280;3567;52.444;13.556;2023-03-16T10:39:08;101872.59;;;12.92;40.67
7052;BME280;3567;52.444;13.556;2023-03-16T10:41:41;101873.44;;;13.24;40.02
7052;BME280;3567;52.444;13.556;2023-03-16T10:44:13;101855.66;;;13.23;39.47
7052;BME280;3567;52.444;13.556;2023-03-16T10:49:33;101842.50;;;13.40;37.60
7052;BME280;3567;52.444;13.556;2023-03-16T10:52:05;101850.16;;;13.36;39.08
7052;BME280;3567;52.444;13.556;2023-03-16T10:54:35;101828.38;;;13.44;36.98
7052;BME280;3567;52.444;13.556;2023-03-16T10:57:23;101843.31;;;13.40;38.08
7052;BME280;3567;52.444;13.556;2023-03-16T10:59:51;101833.75;;;13.44;38.13
7052;BME280;3567;52.444;13.556;2023-03-16T11:02:21;101832.38;;;13.35;36.80
7052;BME280;3567;52.444;13.556;2023-03-16T11:04:49;101842.75;;;13.56;37.94
7052;BME280;3567;52.444;13.556;2023-03-16T11:07:16;101838.16;;;13.63;37.02
7052;BME280;3567;52.444;13.556;2023-03-16T11:09:42;101833.56;;;13.64;36.74
7052;BME280;3567;52.444;13.556;2023-03-16T11:12:30;101836.59;;;13.74;36.44
7052;BME280;3567;52.444;13.556;2023-03-16T11:15:12;101831.13;;;13.99;36.23
7052;BME280;3567;52.444;13.556;2023-03-16T11:17:48;101829.63;;;14.03;35.34
7052;BME280;3567;52.444;13.556;2023-03-16T11:20:18;101827.81;;;14.15;36.33
7052;BME280;3567;52.444;13.556;2023-03-16T11:22:46;101821.13;;;14.06;35.03
7052;BME280;3567;52.444;13.556;2023-03-16T11:25:39;101801.72;;;13.98;32.89
7052;BME280;3567;52.444;13.556;2023-03-16T11:30:41;101814.81;;;14.12;34.62
7052;BME280;3567;52.444;13.556;2023-03-16T11:33:11;101813.31;;;13.98;35.42
7052;BME280;3567;52.444;13.556;2023-03-16T11:35:42;101819.13;;;14.32;35.18
7052;BME280;3567;52.444;13.556;2023-03-16T11:38:13;101801.72;;;14.46;34.01
7052;BME280;3567;52.444;13.556;2023-03-16T11:41:02;101794.41;;;14.35;32.96
7052;BME280;3567;52.444;13.556;2023-03-16T11:43:51;101797.16;;;13.98;33.37
7052;BME280;3567;52.444;13.556;2023-03-16T11:54:58;101787.97;;;14.36;33.43
7052;BME280;3567;52.444;13.556;2023-03-16T12:03:36;101763.63;;;13.57;32.07
7052;BME280;3567;52.444;13.556;2023-03-16T12:14:43;101760.50;;;13.79;33.82
7052;BME280;3567;52.444;13.556;2023-03-16T12:17:15;101757.56;;;14.17;32.77
7052;BME280;3567;52.444;13.556;2023-03-16T12:19:48;101741.84;;;14.14;31.85
7052;BME280;3567;52.444;13.556;2023-03-16T12:22:30;101729.31;;;14.20;29.76
7052;BME280;3567;52.444;13.556;2023-03-16T12:24:57;101739.03;;;14.21;30.75
7052;BME280;3567;52.444;13.556;2023-03-16T12:27:27;101734.81;;;14.13;31.03
7052;BME280;3567;52.444;13.556;2023-03-16T12:33:18;101735.22;;;13.80;30.69
7052;BME280;3567;52.444;13.556;2023-03-16T12:38:50;101731.31;;;13.94;32.70
7052;BME280;3567;52.444;13.556;2023-03-16T12:44:18;101729.56;;;14.00;32.22
7052;BME280;3567;52.444;13.556;2023-03-16T12:49:25;101716.84;;;13.58;32.74
7052;BME280;3567;52.444;13.556;2023-03-16T12:52:18;101721.47;;;13.70;33.69
7052;BME280;3567;52.444;13.556;2023-03-16T12:55:07;101724.91;;;13.77;33.14
7052;BME280;3567;52.444;13.556;2023-03-16T12:57:39;101718.06;;;13.93;33.19
7052;BME280;3567;52.444;13.556;2023-03-16T13:00:05;101711.97;;;14.15;33.23
7052;BME280;3567;52.444;13.556;2023-03-16T13:02:35;101702.41;;;14.31;32.41
7052;BME280;3567;52.444;13.556;2023-03-16T13:05:13;101695.25;;;14.25;32.03
7052;BME280;3567;52.444;13.556;2023-03-16T13:07:48;101693.91;;;14.16;32.39
7052;BME280;3567;52.444;13.556;2023-03-16T13:10:18;101693.72;;;14.18;32.64
7052;BME280;3567;52.444;13.556;2023-03-16T13:12:45;101694.44;;;14.25;33.09
7052;BME280;3567;52.444;13.556;2023-03-16T13:17:44;101672.19;;;13.99;30.42
7052;BME280;3567;52.444;13.556;2023-03-16T13:20:22;101673.09;;;13.93;30.83
7052;BME280;3567;52.444;13.556;2023-03-16T13:23:05;101665.56;;;14.13;30.34
7052;BME280;3567;52.444;13.556;2023-03-16T13:25:39;101666.50;;;14.07;30.22
7052;BME280;3567;52.444;13.556;2023-03-16T13:28:12;101663.94;;;14.12;30.75
7052;BME280;3567;52.444;13.556;2023-03-16T13:30:44;101664.19;;;14.23;30.42
7052;BME280;3567;52.444;13.556;2023-03-16T13:33:20;101665.75;;;14.00;30.34
7052;BME280;3567;52.444;13.556;2023-03-16T13:35:48;101675.22;;;13.91;30.79
7052;BME280;3567;52.444;13.556;2023-03-16T13:38:16;101675.63;;;14.06;31.62
7052;BME280;3567;52.444;13.556;2023-03-16T13:40:47;101671.41;;;14.10;30.24
7052;BME280;3567;52.444;13.556;2023-03-16T13:43:15;101669.59;;;14.23;30.35
7052;BME280;3567;52.444;13.556;2023-03-16T13:45:41;101643.25;;;13.95;24.33
7052;BME280;3567;52.444;13.556;2023-03-16T13:48:14;101642.28;;;13.22;25.95
7052;BME280;3567;52.444;13.556;2023-03-16T13:50:41;101652.56;;;13.07;28.05
7052;BME280;3567;52.444;13.556;2023-03-16T13:53:17;101654.13;;;13.15;28.62
7052;BME280;3567;52.444;13.556;2023-03-16T13:55:45;101661.28;;;13.27;29.45
7052;BME280;3567;52.444;13.556;2023-03-16T13:58:37;101653.66;;;13.24;29.42
7052;BME280;3567;52.444;13.556;2023-03-16T14:01:22;101644.03;;;13.10;29.87